createdAt,value
2023-01-29T00:00:11.258Z,98428.94
2023-01-29T00:03:37.986Z,98424.44
2023-01-29T00:06:41.811Z,98431.88
2023-01-29T00:09:46.817Z,98434.50
2023-01-29T00:12:52.136Z,98432.84
2023-01-29T00:15:58.167Z,98439.66
2023-01-29T00:19:02.589Z,98448.84
2023-01-29T00:22:06.471Z,98455.41
2023-01-29T00:25:11.588Z,98457.81
2023-01-29T00:28:19.596Z,98458.72
2023-01-29T00:31:27.037Z,98454.84
2023-01-29T00:34:31.437Z,98458.22
2023-01-29T00:37:34.895Z,98465.88
2023-01-29T00:40:53.658Z,98459.28
2023-01-29T00:44:15.129Z,98470.69
2023-01-29T00:47:33.475Z,98463.22
2023-01-29T00:50:37.232Z,98466.22
2023-01-29T00:53:43.001Z,98468.53
2023-01-29T00:56:46.575Z,98468.38
2023-01-29T00:59:51.383Z,98462.78
2023-01-29T01:03:08.263Z,98467.38
2023-01-29T01:06:13.503Z,98462.56
2023-01-29T01:09:35.535Z,98467.69
2023-01-29T01:12:39.572Z,98465.47
2023-01-29T01:15:43.064Z,98464.69
2023-01-29T01:18:48.442Z,98469.00
2023-01-29T01:21:52.002Z,98465.44
2023-01-29T01:24:55.717Z,98471.44
2023-01-29T01:28:03.445Z,98457.25
2023-01-29T01:31:12.072Z,98466.00
2023-01-29T01:34:17.212Z,98471.41
2023-01-29T01:37:21.055Z,98469.47
2023-01-29T01:40:25.944Z,98476.16
2023-01-29T01:43:29.913Z,98468.13
2023-01-29T01:46:38.868Z,98477.13
2023-01-29T01:49:44.671Z,98476.38
2023-01-29T01:52:51.683Z,98476.91
2023-01-29T01:56:01.707Z,98475.66
2023-01-29T01:59:09.766Z,98474.25
2023-01-29T02:02:32.411Z,98474.22
2023-01-29T02:05:55.897Z,98475.91
2023-01-29T02:09:21.618Z,98469.22
2023-01-29T02:12:25.959Z,98470.97
2023-01-29T02:15:29.679Z,98472.28
2023-01-29T02:18:37.989Z,98475.38
2023-01-29T02:22:11.594Z,98481.31
2023-01-29T02:25:49.028Z,98484.53
2023-01-29T02:29:21.572Z,98483.19
2023-01-29T02:32:34.291Z,98487.47
2023-01-29T02:35:44.984Z,98488.94
2023-01-29T02:39:01.128Z,98497.38
2023-01-29T02:42:18.142Z,98489.78
2023-01-29T02:45:33.981Z,98497.44
2023-01-29T02:48:46.029Z,98491.78
2023-01-29T02:51:57.000Z,98496.50
2023-01-29T02:55:09.630Z,98499.06
2023-01-29T02:58:23.528Z,98493.66
2023-01-29T03:01:34.263Z,98494.38
2023-01-29T03:04:46.614Z,98498.50
2023-01-29T03:07:58.683Z,98487.31
2023-01-29T03:11:13.875Z,98499.00
2023-01-29T03:14:47.769Z,98501.06
2023-01-29T03:17:57.995Z,98495.69
2023-01-29T03:21:26.559Z,98495.72
2023-01-29T03:24:56.123Z,98503.19
2023-01-29T03:28:22.518Z,98504.47
2023-01-29T03:31:45.789Z,98500.81
2023-01-29T03:34:59.028Z,98498.75
2023-01-29T03:38:05.236Z,98506.38
2023-01-29T03:41:17.010Z,98504.19
2023-01-29T03:44:32.302Z,98499.19
2023-01-29T03:47:47.172Z,98501.78
2023-01-29T03:50:59.045Z,98504.16
2023-01-29T03:54:11.959Z,98507.16
2023-01-29T03:57:21.323Z,98500.34
2023-01-29T04:00:30.923Z,98510.88
2023-01-29T04:03:45.052Z,98501.41
2023-01-29T04:06:54.188Z,98505.94
2023-01-29T04:10:02.203Z,98502.31
2023-01-29T04:13:13.186Z,98512.09
2023-01-29T04:16:24.065Z,98503.34
2023-01-29T04:19:38.254Z,98513.19
2023-01-29T04:22:47.219Z,98515.84
2023-01-29T04:25:59.503Z,98516.25
2023-01-29T04:29:22.849Z,98513.72
2023-01-29T04:32:38.106Z,98521.84
2023-01-29T04:35:55.495Z,98513.38
2023-01-29T04:39:12.083Z,98518.72
2023-01-29T04:42:26.043Z,98527.19
2023-01-29T04:45:40.501Z,98528.81
2023-01-29T04:48:59.753Z,98531.00
2023-01-29T04:52:10.765Z,98528.03
2023-01-29T04:55:21.130Z,98538.72
2023-01-29T04:58:34.081Z,98541.41
2023-01-29T05:01:40.079Z,98537.22
2023-01-29T05:04:47.247Z,98541.31
2023-01-29T05:07:51.818Z,98540.84
2023-01-29T05:10:59.956Z,98541.97
2023-01-29T05:14:08.176Z,98543.06
2023-01-29T05:17:17.148Z,98540.56
2023-01-29T05:20:21.405Z,98546.41
2023-01-29T05:23:25.461Z,98541.53
2023-01-29T05:26:47.730Z,98546.22
2023-01-29T05:29:51.441Z,98544.53
2023-01-29T05:32:54.928Z,98550.81
2023-01-29T05:36:02.299Z,98552.38
2023-01-29T05:39:05.913Z,98549.94
2023-01-29T05:42:11.285Z,98556.88
2023-01-29T05:45:14.859Z,98546.06
2023-01-29T05:48:18.800Z,98555.53
2023-01-29T05:51:22.322Z,98551.56
2023-01-29T05:54:26.061Z,98565.66
2023-01-29T05:57:30.965Z,98570.34
2023-01-29T06:00:34.864Z,98568.41
2023-01-29T06:03:38.349Z,98564.66
2023-01-29T06:06:42.090Z,98568.69
2023-01-29T06:09:45.595Z,98571.56
2023-01-29T06:12:51.151Z,98578.06
2023-01-29T06:15:54.708Z,98585.75
2023-01-29T06:18:58.691Z,98592.59
2023-01-29T06:22:02.219Z,98592.91
2023-01-29T06:25:08.670Z,98596.81
2023-01-29T06:28:13.519Z,98598.88
2023-01-29T06:31:37.749Z,98602.28
2023-01-29T06:34:41.759Z,98607.13
2023-01-29T06:37:45.837Z,98603.75
2023-01-29T06:40:49.219Z,98608.84
2023-01-29T06:43:54.529Z,98617.16
2023-01-29T06:46:58.052Z,98613.97
2023-01-29T06:50:02.233Z,98625.44
2023-01-29T06:53:05.728Z,98626.84
2023-01-29T06:56:10.105Z,98628.00
2023-01-29T06:59:15.228Z,98626.66
2023-01-29T07:02:19.297Z,98630.31
2023-01-29T07:05:22.875Z,98626.28
2023-01-29T07:08:26.653Z,98636.97
2023-01-29T07:11:30.259Z,98632.50
2023-01-29T07:14:37.175Z,98635.03
2023-01-29T07:17:41.310Z,98644.41
2023-01-29T07:20:45.107Z,98637.53
2023-01-29T07:23:49.990Z,98638.22
2023-01-29T07:26:54.110Z,98638.84
2023-01-29T07:29:58.867Z,98645.75
2023-01-29T07:33:07.106Z,98640.94
2023-01-29T07:36:11.450Z,98645.75
2023-01-29T07:39:16.331Z,98650.59
2023-01-29T07:42:19.823Z,98644.53
2023-01-29T07:45:25.299Z,98646.78
2023-01-29T07:48:28.840Z,98654.53
2023-01-29T07:51:33.377Z,98651.16
2023-01-29T07:54:36.859Z,98660.50
2023-01-29T07:57:40.743Z,98645.34
2023-01-29T08:00:45.936Z,98650.97
2023-01-29T08:03:51.245Z,98660.00
2023-01-29T08:06:54.798Z,98652.69
2023-01-29T08:10:00.764Z,98659.78
2023-01-29T08:13:05.489Z,98668.66
2023-01-29T08:16:29.464Z,98670.38
2023-01-29T08:19:33.377Z,98670.28
2023-01-29T08:22:37.318Z,98676.03
2023-01-29T08:25:41.273Z,98672.41
2023-01-29T08:28:45.299Z,98668.88
2023-01-29T08:31:50.404Z,98666.13
2023-01-29T08:34:54.208Z,98677.66
2023-01-29T08:37:59.746Z,98670.97
2023-01-29T08:41:06.535Z,98677.63
2023-01-29T08:44:10.350Z,98675.66
2023-01-29T08:47:16.395Z,98682.81
2023-01-29T08:50:20.374Z,98691.13
2023-01-29T08:53:25.049Z,98691.03
2023-01-29T08:56:28.643Z,98691.97
2023-01-29T08:59:32.642Z,98698.97
2023-01-29T09:02:37.990Z,98695.47
2023-01-29T09:05:43.887Z,98698.19
2023-01-29T09:08:48.014Z,98698.56
2023-01-29T09:11:51.972Z,98688.75
2023-01-29T09:14:56.969Z,98694.63
2023-01-29T09:18:06.462Z,98693.41
2023-01-29T09:21:10.463Z,98692.34
2023-01-29T09:24:14.337Z,98698.16
2023-01-29T09:27:18.043Z,98681.56
2023-01-29T09:30:22.305Z,98691.75
2023-01-29T09:33:27.279Z,98682.25
2023-01-29T09:36:30.978Z,98677.66
2023-01-29T09:39:36.057Z,98686.06
2023-01-29T09:42:48.692Z,98680.50
2023-01-29T09:45:57.495Z,98687.72
2023-01-29T09:49:08.812Z,98681.63
2023-01-29T09:52:18.663Z,98675.66
2023-01-29T09:55:26.350Z,98675.97
2023-01-29T09:58:33.636Z,98667.19
2023-01-29T10:01:45.772Z,98673.03
2023-01-29T10:05:23.537Z,98676.16
2023-01-29T10:08:48.770Z,98668.81
2023-01-29T10:12:06.604Z,98667.22
2023-01-29T10:15:24.972Z,98668.03
2023-01-29T10:18:55.181Z,98666.59
2023-01-29T10:22:38.906Z,98658.06
2023-01-29T10:25:45.725Z,98651.06
2023-01-29T10:28:52.908Z,98654.19
2023-01-29T10:32:05.347Z,98645.16
2023-01-29T10:35:22.553Z,98636.91
2023-01-29T10:38:36.429Z,98638.47
2023-01-29T10:41:57.134Z,98635.97
2023-01-29T10:45:20.175Z,98632.19
2023-01-29T10:48:41.919Z,98634.94
2023-01-29T10:52:04.950Z,98633.28
2023-01-29T10:55:25.380Z,98631.28
2023-01-29T10:58:35.168Z,98625.13
2023-01-29T11:01:39.409Z,98625.72
2023-01-29T11:04:43.016Z,98625.75
2023-01-29T11:07:47.774Z,98621.03
2023-01-29T11:11:02.568Z,98618.91
2023-01-29T11:14:11.312Z,98614.75
2023-01-29T11:17:19.080Z,98613.19
2023-01-29T11:20:28.839Z,98617.09
2023-01-29T11:23:34.394Z,98621.13
2023-01-29T11:26:42.360Z,98604.59
2023-01-29T11:29:48.262Z,98607.47
2023-01-29T11:32:59.218Z,98610.91
2023-01-29T11:36:22.839Z,98596.75
2023-01-29T11:39:28.063Z,98607.03
2023-01-29T11:42:34.243Z,98601.47
2023-01-29T11:45:41.003Z,98601.00
2023-01-29T11:48:48.026Z,98601.09
2023-01-29T11:51:56.462Z,98590.38
2023-01-29T11:55:02.287Z,98595.41
2023-01-29T11:58:14.859Z,98594.22
2023-01-29T12:01:25.941Z,98598.19
2023-01-29T12:04:31.440Z,98588.50
2023-01-29T12:07:36.187Z,98587.69
2023-01-29T12:10:42.479Z,98588.56
2023-01-29T12:13:55.759Z,98594.75
2023-01-29T12:17:07.089Z,98589.22
2023-01-29T12:20:19.027Z,98581.94
2023-01-29T12:23:32.888Z,98590.66
2023-01-29T12:26:42.430Z,98597.28
2023-01-29T12:29:53.983Z,98592.34
2023-01-29T12:33:03.683Z,98587.25
2023-01-29T12:36:14.950Z,98584.34
2023-01-29T12:39:18.973Z,98584.63
2023-01-29T12:42:24.664Z,98591.00
2023-01-29T12:45:32.438Z,98601.19
2023-01-29T12:48:41.292Z,98603.53
2023-01-29T12:51:54.512Z,98601.16
2023-01-29T12:55:04.932Z,98599.78
2023-01-29T12:58:17.068Z,98598.56
2023-01-29T13:01:31.242Z,98604.72
2023-01-29T13:04:41.443Z,98596.06
2023-01-29T13:07:50.832Z,98598.03
2023-01-29T13:10:56.461Z,98591.81
2023-01-29T13:14:03.293Z,98597.25
2023-01-29T13:17:12.328Z,98600.75
2023-01-29T13:20:22.259Z,98607.78
2023-01-29T13:23:33.559Z,98605.00
2023-01-29T13:26:38.274Z,98608.88
2023-01-29T13:29:45.172Z,98623.84
2023-01-29T13:32:54.393Z,98615.41
2023-01-29T13:36:00.981Z,98619.84
2023-01-29T13:39:08.624Z,98619.81
2023-01-29T13:42:18.972Z,98623.38
2023-01-29T13:45:25.978Z,98627.72
2023-01-29T13:48:36.900Z,98620.16
2023-01-29T13:51:40.887Z,98629.69
2023-01-29T13:54:54.783Z,98622.72
2023-01-29T13:57:59.819Z,98627.44
2023-01-29T14:01:03.764Z,98628.72
2023-01-29T14:04:25.889Z,98627.78
2023-01-29T14:07:51.393Z,98633.91
2023-01-29T14:11:28.864Z,98640.94
2023-01-29T14:14:53.074Z,98628.75
2023-01-29T14:18:06.363Z,98636.69
2023-01-29T14:21:24.213Z,98626.78
2023-01-29T14:24:32.262Z,98632.28
2023-01-29T14:27:38.391Z,98636.28
2023-01-29T14:30:48.872Z,98639.31
2023-01-29T14:33:54.411Z,98627.56
2023-01-29T14:37:03.963Z,98635.75
2023-01-29T14:40:21.520Z,98631.75
2023-01-29T14:43:25.538Z,98635.22
2023-01-29T14:46:45.832Z,98632.09
2023-01-29T14:49:51.285Z,98632.88
2023-01-29T14:53:03.001Z,98639.56
2023-01-29T14:56:15.611Z,98644.47
2023-01-29T14:59:23.343Z,98639.63
2023-01-29T15:02:35.224Z,98640.44
2023-01-29T15:05:40.880Z,98637.09
2023-01-29T15:08:52.097Z,98631.94
2023-01-29T15:12:04.715Z,98638.94
2023-01-29T15:15:17.698Z,98632.31
2023-01-29T15:18:32.641Z,98635.69
2023-01-29T15:21:37.499Z,98641.53
2023-01-29T15:24:44.088Z,98643.47
2023-01-29T15:27:48.560Z,98639.22
2023-01-29T15:30:57.066Z,98645.88
2023-01-29T15:34:07.797Z,98649.78
2023-01-29T15:37:26.703Z,98651.00
2023-01-29T15:40:32.202Z,98648.63
2023-01-29T15:43:37.951Z,98642.75
2023-01-29T15:46:44.833Z,98648.84
2023-01-29T15:49:49.299Z,98651.69
2023-01-29T15:52:55.362Z,98643.13
2023-01-29T15:56:00.362Z,98640.31
2023-01-29T15:59:09.669Z,98651.66
2023-01-29T16:02:22.870Z,98644.88
2023-01-29T16:05:29.730Z,98654.00
2023-01-29T16:08:35.849Z,98647.09
2023-01-29T16:11:43.287Z,98649.16
2023-01-29T16:14:47.924Z,98645.81
2023-01-29T16:17:52.082Z,98651.63
2023-01-29T16:20:57.521Z,98650.63
2023-01-29T16:24:03.804Z,98651.03
2023-01-29T16:27:15.050Z,98657.59
2023-01-29T16:30:20.742Z,98661.72
2023-01-29T16:33:33.518Z,98660.88
2023-01-29T16:36:37.619Z,98658.22
2023-01-29T16:39:47.908Z,98647.50
2023-01-29T16:43:31.349Z,98645.97
2023-01-29T16:46:38.895Z,98638.72
2023-01-29T16:49:51.675Z,98639.09
2023-01-29T16:53:00.030Z,98642.19
2023-01-29T16:56:07.139Z,98635.72
2023-01-29T16:59:21.130Z,98644.28
2023-01-29T17:02:28.618Z,98645.03
2023-01-29T17:05:36.007Z,98643.41
2023-01-29T17:08:42.884Z,98646.97
2023-01-29T17:11:46.559Z,98644.97
2023-01-29T17:14:57.270Z,98641.09
2023-01-29T17:18:00.921Z,98639.03
2023-01-29T17:21:07.634Z,98637.50
2023-01-29T17:24:11.265Z,98633.22
2023-01-29T17:27:30.499Z,98625.34
2023-01-29T17:30:37.898Z,98628.84
2023-01-29T17:33:44.075Z,98622.03
2023-01-29T17:36:48.893Z,98621.28
2023-01-29T17:39:53.112Z,98616.59
2023-01-29T17:42:56.768Z,98615.06
2023-01-29T17:46:02.263Z,98611.47
2023-01-29T17:49:11.442Z,98619.03
2023-01-29T17:52:15.984Z,98619.75
2023-01-29T17:55:19.960Z,98611.00
2023-01-29T17:58:26.561Z,98618.16
2023-01-29T18:01:31.518Z,98612.44
2023-01-29T18:04:37.237Z,98612.63
2023-01-29T18:07:44.237Z,98607.50
2023-01-29T18:10:48.453Z,98603.00
2023-01-29T18:13:51.928Z,98603.09
2023-01-29T18:16:58.217Z,98602.50
2023-01-29T18:20:02.483Z,98596.44
2023-01-29T18:23:07.630Z,98594.88
2023-01-29T18:26:12.878Z,98589.09
2023-01-29T18:29:16.962Z,98590.03
2023-01-29T18:32:22.028Z,98588.00
2023-01-29T18:35:26.208Z,98593.53
2023-01-29T18:38:29.776Z,98598.25
2023-01-29T18:41:34.675Z,98597.56
2023-01-29T18:44:38.318Z,98604.38
2023-01-29T18:47:43.875Z,98603.47
2023-01-29T18:50:48.018Z,98610.09
2023-01-29T18:53:52.298Z,98608.50
2023-01-29T18:57:06.318Z,98608.09
2023-01-29T19:00:18.463Z,98612.50
2023-01-29T19:03:24.320Z,98620.06
2023-01-29T19:06:31.440Z,98617.78
2023-01-29T19:09:35.183Z,98617.38
2023-01-29T19:12:40.515Z,98624.09
2023-01-29T19:15:44.942Z,98619.38
2023-01-29T19:18:50.425Z,98616.88
2023-01-29T19:21:54.307Z,98613.72
2023-01-29T19:24:58.417Z,98609.44
2023-01-29T19:28:02.535Z,98617.66
2023-01-29T19:31:06.582Z,98622.63
2023-01-29T19:34:11.448Z,98612.38
2023-01-29T19:37:15.187Z,98614.75
2023-01-29T19:40:21.777Z,98611.97
2023-01-29T19:43:25.516Z,98617.34
2023-01-29T19:46:30.246Z,98607.88
2023-01-29T19:49:35.859Z,98615.31
2023-01-29T19:52:50.638Z,98611.75
2023-01-29T19:55:59.885Z,98614.34
2023-01-29T19:59:05.140Z,98613.59
2023-01-29T20:02:10.402Z,98613.16
2023-01-29T20:05:17.301Z,98618.94
2023-01-29T20:08:25.078Z,98624.66
2023-01-29T20:11:28.856Z,98619.38
2023-01-29T20:14:32.981Z,98618.91
2023-01-29T20:17:36.605Z,98617.72
2023-01-29T20:20:43.268Z,98626.03
2023-01-29T20:23:46.873Z,98630.78
2023-01-29T20:26:51.495Z,98627.34
2023-01-29T20:29:55.149Z,98623.94
2023-01-29T20:32:59.088Z,98617.53
2023-01-29T20:36:06.099Z,98619.41
2023-01-29T20:39:10.149Z,98628.38
2023-01-29T20:42:13.955Z,98619.13
2023-01-29T20:45:18.019Z,98608.03
2023-01-29T20:48:21.761Z,98617.81
2023-01-29T20:51:27.254Z,98622.63
2023-01-29T20:54:34.828Z,98609.56
2023-01-29T20:57:40.111Z,98619.75
2023-01-29T21:00:44.074Z,98614.22
2023-01-29T21:03:49.560Z,98617.34
2023-01-29T21:06:54.615Z,98618.56
2023-01-29T21:09:58.879Z,98622.88
2023-01-29T21:13:02.480Z,98613.38
2023-01-29T21:16:09.640Z,98616.75
2023-01-29T21:19:15.026Z,98620.91
2023-01-29T21:22:20.403Z,98622.25
2023-01-29T21:25:24.750Z,98611.53
2023-01-29T21:28:28.678Z,98604.38
2023-01-29T21:31:32.166Z,98608.63
2023-01-29T21:34:36.891Z,98598.94
2023-01-29T21:37:42.016Z,98604.22
2023-01-29T21:40:46.051Z,98603.41
2023-01-29T21:43:48.663Z,98596.19
2023-01-29T21:46:53.273Z,98591.47
2023-01-29T21:49:58.976Z,98601.63
2023-01-29T21:53:04.432Z,98587.53
2023-01-29T21:56:08.268Z,98594.22
2023-01-29T21:59:12.713Z,98586.75
2023-01-29T22:02:16.844Z,98586.75
2023-01-29T22:05:21.125Z,98584.31
2023-01-29T22:08:26.235Z,98583.09
2023-01-29T22:11:30.215Z,98588.25
2023-01-29T22:14:33.775Z,98581.19
2023-01-29T22:17:41.200Z,98573.13
2023-01-29T22:20:44.739Z,98576.97
2023-01-29T22:23:51.221Z,98561.09
2023-01-29T22:26:54.639Z,98567.63
2023-01-29T22:29:58.527Z,98567.56
2023-01-29T22:33:02.161Z,98564.28
2023-01-29T22:36:07.011Z,98567.47
2023-01-29T22:39:12.366Z,98558.72
2023-01-29T22:42:16.406Z,98556.34
2023-01-29T22:45:19.917Z,98552.44
2023-01-29T22:48:26.989Z,98549.00
2023-01-29T22:51:30.807Z,98546.03
2023-01-29T22:54:38.720Z,98544.94
2023-01-29T22:57:42.548Z,98544.25
2023-01-29T23:00:51.365Z,98539.53
2023-01-29T23:03:56.547Z,98532.72
2023-01-29T23:07:01.349Z,98535.41
2023-01-29T23:10:07.320Z,98546.41
2023-01-29T23:13:11.629Z,98536.38
2023-01-29T23:16:16.411Z,98533.44
2023-01-29T23:19:21.975Z,98526.31
2023-01-29T23:22:26.138Z,98535.75
2023-01-29T23:25:46.402Z,98535.53
2023-01-29T23:28:49.924Z,98533.09
2023-01-29T23:31:53.863Z,98527.56
2023-01-29T23:34:57.342Z,98521.28
2023-01-29T23:38:01.558Z,98517.41
2023-01-29T23:41:07.048Z,98517.63
2023-01-29T23:44:11.295Z,98515.44
2023-01-29T23:47:14.681Z,98514.50
2023-01-29T23:50:19.191Z,98510.47
2023-01-29T23:53:23.323Z,98507.06
2023-01-29T23:56:29.552Z,98506.28
2023-01-29T23:59:51.663Z,98489.81
